createdAt,value
2023-11-23T00:00:12.104Z,75.04
2023-11-23T00:02:39.846Z,74.74
2023-11-23T00:05:10.614Z,75.17
2023-11-23T00:07:39.447Z,75.17
2023-11-23T00:10:12.446Z,75.29
2023-11-23T00:12:39.828Z,75.40
2023-11-23T00:15:08.364Z,75.27
2023-11-23T00:17:37.111Z,75.24
2023-11-23T00:20:08.096Z,75.19
2023-11-23T00:22:35.974Z,75.60
2023-11-23T00:25:04.566Z,75.16
2023-11-23T00:27:31.225Z,74.94
2023-11-23T00:29:58.000Z,75.11
2023-11-23T00:32:24.903Z,74.57
2023-11-23T00:34:52.301Z,74.51
2023-11-23T00:37:19.217Z,74.72
2023-11-23T00:39:45.974Z,74.67
2023-11-23T00:42:12.762Z,74.78
2023-11-23T00:44:40.205Z,75.03
2023-11-23T00:47:07.707Z,74.75
2023-11-23T00:49:37.183Z,74.96
2023-11-23T00:52:04.177Z,75.21
2023-11-23T00:54:31.541Z,75.11
2023-11-23T00:56:58.254Z,75.69
2023-11-23T00:59:25.100Z,75.54
2023-11-23T01:01:51.940Z,75.47
2023-11-23T01:04:18.981Z,75.52
2023-11-23T01:06:45.709Z,75.40
2023-11-23T01:09:12.804Z,75.06
2023-11-23T01:11:40.187Z,74.52
2023-11-23T01:14:09.514Z,74.76
2023-11-23T01:16:36.465Z,75.06
2023-11-23T01:19:03.224Z,75.04
2023-11-23T01:21:30.024Z,75.10
2023-11-23T01:23:56.702Z,75.13
2023-11-23T01:26:23.420Z,74.95
2023-11-23T01:28:50.134Z,75.15
2023-11-23T01:31:16.882Z,75.14
2023-11-23T01:33:43.616Z,75.34
2023-11-23T01:36:10.465Z,75.31
2023-11-23T01:38:37.569Z,75.53
2023-11-23T01:41:04.477Z,75.44
2023-11-23T01:43:32.879Z,75.34
2023-11-23T01:45:59.609Z,75.26
2023-11-23T01:48:26.278Z,75.44
2023-11-23T01:50:53.004Z,75.17
2023-11-23T01:53:19.654Z,75.35
2023-11-23T01:55:47.663Z,74.90
2023-11-23T01:58:15.376Z,75.34
2023-11-23T02:00:42.016Z,75.11
2023-11-23T02:03:08.738Z,75.21
2023-11-23T02:05:35.452Z,74.77
2023-11-23T02:08:02.129Z,74.50
2023-11-23T02:10:29.113Z,74.45
2023-11-23T02:12:56.969Z,74.42
2023-11-23T02:15:23.707Z,74.54
2023-11-23T02:18:03.488Z,74.50
2023-11-23T02:20:32.078Z,74.40
2023-11-23T02:23:01.257Z,74.11
2023-11-23T02:25:28.373Z,74.19
2023-11-23T02:27:55.019Z,73.98
2023-11-23T02:30:21.777Z,74.46
2023-11-23T02:32:49.414Z,74.07
2023-11-23T02:35:16.361Z,74.20
2023-11-23T02:37:43.232Z,73.90
2023-11-23T02:40:12.202Z,74.12
2023-11-23T02:42:41.855Z,74.21
2023-11-23T02:45:10.324Z,74.01
2023-11-23T02:47:37.038Z,74.22
2023-11-23T02:50:05.640Z,74.31
2023-11-23T02:52:32.511Z,74.27
2023-11-23T02:54:59.157Z,74.02
2023-11-23T02:57:25.865Z,74.42
2023-11-23T02:59:52.541Z,74.93
2023-11-23T03:02:19.454Z,74.71
2023-11-23T03:04:46.270Z,74.71
2023-11-23T03:07:13.003Z,74.84
2023-11-23T03:09:39.635Z,74.70
2023-11-23T03:12:06.587Z,74.70
2023-11-23T03:14:35.621Z,74.76
2023-11-23T03:17:04.335Z,74.32
2023-11-23T03:19:31.053Z,74.28
2023-11-23T03:21:58.821Z,74.30
2023-11-23T03:24:25.675Z,74.60
2023-11-23T03:26:52.540Z,74.43
2023-11-23T03:29:19.275Z,74.77
2023-11-23T03:31:46.203Z,74.76
2023-11-23T03:34:13.038Z,75.00
2023-11-23T03:36:39.798Z,74.85
2023-11-23T03:39:08.166Z,74.27
2023-11-23T03:41:35.422Z,74.38
2023-11-23T03:44:02.162Z,74.61
2023-11-23T03:46:28.910Z,74.48
2023-11-23T03:48:55.851Z,74.80
2023-11-23T03:51:22.524Z,74.84
2023-11-23T03:53:49.298Z,74.51
2023-11-23T03:56:19.797Z,74.98
2023-11-23T03:58:46.618Z,74.69
2023-11-23T04:01:13.353Z,75.09
2023-11-23T04:03:46.098Z,75.39
2023-11-23T04:06:13.031Z,75.38
2023-11-23T04:08:42.779Z,75.12
2023-11-23T04:11:10.686Z,76.03
2023-11-23T04:13:37.483Z,76.03
2023-11-23T04:16:04.599Z,75.88
2023-11-23T04:18:31.328Z,75.71
2023-11-23T04:20:58.218Z,75.76
2023-11-23T04:23:25.056Z,75.79
2023-11-23T04:25:51.742Z,75.70
2023-11-23T04:28:18.463Z,75.58
2023-11-23T04:30:45.304Z,75.97
2023-11-23T04:33:12.360Z,76.45
2023-11-23T04:35:39.252Z,76.32
2023-11-23T04:38:06.040Z,76.32
2023-11-23T04:40:32.737Z,76.16
2023-11-23T04:42:59.466Z,76.10
2023-11-23T04:45:26.273Z,76.38
2023-11-23T04:47:53.535Z,75.99
2023-11-23T04:50:22.456Z,76.10
2023-11-23T04:52:49.445Z,75.85
2023-11-23T04:55:16.121Z,75.95
2023-11-23T04:57:43.183Z,76.10
2023-11-23T05:00:12.098Z,75.82
2023-11-23T05:02:44.050Z,76.04
2023-11-23T05:05:13.377Z,75.70
2023-11-23T05:07:40.496Z,75.72
2023-11-23T05:10:09.465Z,75.77
2023-11-23T05:12:36.632Z,75.62
2023-11-23T05:15:04.085Z,75.59
2023-11-23T05:17:31.565Z,75.10
2023-11-23T05:19:58.227Z,75.37
2023-11-23T05:22:25.527Z,75.32
2023-11-23T05:24:52.214Z,75.63
2023-11-23T05:27:18.984Z,75.35
2023-11-23T05:29:47.622Z,74.69
2023-11-23T05:32:16.136Z,74.78
2023-11-23T05:34:42.777Z,74.74
2023-11-23T05:37:09.447Z,74.56
2023-11-23T05:39:36.372Z,75.16
2023-11-23T05:42:04.076Z,75.36
2023-11-23T05:44:31.575Z,75.51
2023-11-23T05:46:58.289Z,75.32
2023-11-23T05:49:24.957Z,75.16
2023-11-23T05:51:51.679Z,75.20
2023-11-23T05:54:18.501Z,75.25
2023-11-23T05:56:46.628Z,75.20
2023-11-23T05:59:13.398Z,75.36
2023-11-23T06:01:40.161Z,76.11
2023-11-23T06:04:07.194Z,75.69
2023-11-23T06:06:33.956Z,76.01
2023-11-23T06:09:00.709Z,75.57
2023-11-23T06:11:27.471Z,75.73
2023-11-23T06:13:54.581Z,76.32
2023-11-23T06:16:21.257Z,75.35
2023-11-23T06:18:48.258Z,75.43
2023-11-23T06:21:14.992Z,75.99
2023-11-23T06:23:41.693Z,76.18
2023-11-23T06:26:08.792Z,76.30
2023-11-23T06:28:35.421Z,76.15
2023-11-23T06:31:02.066Z,76.60
2023-11-23T06:33:28.897Z,76.69
2023-11-23T06:35:56.349Z,76.57
2023-11-23T06:38:24.834Z,76.66
2023-11-23T06:40:52.230Z,76.35
2023-11-23T06:43:18.960Z,76.63
2023-11-23T06:45:45.787Z,76.81
2023-11-23T06:48:12.908Z,76.83
2023-11-23T06:50:39.785Z,76.60
2023-11-23T06:53:06.946Z,76.42
2023-11-23T06:55:34.551Z,76.31
2023-11-23T06:58:01.181Z,76.45
2023-11-23T07:00:27.903Z,76.30
2023-11-23T07:02:57.292Z,76.92
2023-11-23T07:05:25.619Z,76.77
2023-11-23T07:07:53.144Z,76.76
2023-11-23T07:10:21.482Z,75.66
2023-11-23T07:12:49.563Z,76.04
2023-11-23T07:15:18.615Z,75.76
2023-11-23T07:17:45.888Z,75.40
2023-11-23T07:20:16.185Z,75.39
2023-11-23T07:22:43.043Z,75.84
2023-11-23T07:25:10.510Z,75.44
2023-11-23T07:27:38.282Z,75.57
2023-11-23T07:30:07.869Z,75.69
2023-11-23T07:32:35.142Z,75.37
2023-11-23T07:35:02.326Z,74.92
2023-11-23T07:37:30.197Z,75.52
2023-11-23T07:39:58.087Z,75.75
2023-11-23T07:42:26.609Z,75.68
2023-11-23T07:44:53.601Z,75.62
2023-11-23T07:47:21.171Z,76.27
2023-11-23T07:49:47.955Z,75.84
2023-11-23T07:52:15.419Z,75.81
2023-11-23T07:54:42.358Z,75.38
2023-11-23T07:57:09.044Z,75.58
2023-11-23T07:59:37.892Z,75.32
2023-11-23T08:02:06.189Z,75.51
2023-11-23T08:04:33.174Z,75.17
2023-11-23T08:07:00.484Z,75.37
2023-11-23T08:09:27.613Z,75.66
2023-11-23T08:11:57.464Z,75.48
2023-11-23T08:14:24.502Z,75.52
2023-11-23T08:16:51.379Z,75.22
2023-11-23T08:19:18.481Z,75.04
2023-11-23T08:21:49.143Z,74.79
2023-11-23T08:24:18.720Z,75.29
2023-11-23T08:26:45.758Z,75.08
2023-11-23T08:29:12.972Z,74.63
2023-11-23T08:31:41.080Z,74.98
2023-11-23T08:34:09.115Z,75.04
2023-11-23T08:36:37.324Z,75.01
2023-11-23T08:39:04.785Z,75.19
2023-11-23T08:41:32.061Z,75.52
2023-11-23T08:43:59.933Z,74.93
2023-11-23T08:46:26.903Z,74.77
2023-11-23T08:48:53.721Z,74.29
2023-11-23T08:51:20.517Z,75.16
2023-11-23T08:53:47.781Z,74.91
2023-11-23T08:56:15.324Z,75.44
2023-11-23T08:58:43.505Z,74.79
2023-11-23T09:01:10.197Z,75.11
2023-11-23T09:03:37.018Z,74.46
2023-11-23T09:06:04.331Z,74.61
2023-11-23T09:08:31.164Z,74.89
2023-11-23T09:10:58.434Z,74.16
2023-11-23T09:13:27.355Z,74.09
2023-11-23T09:15:57.448Z,73.95
2023-11-23T09:18:24.298Z,73.95
2023-11-23T09:21:00.242Z,73.85
2023-11-23T09:23:54.947Z,73.69
2023-11-23T09:26:21.843Z,73.87
2023-11-23T09:28:48.987Z,73.29
2023-11-23T09:31:19.346Z,73.62
2023-11-23T09:33:46.326Z,73.05
2023-11-23T09:36:13.518Z,73.10
2023-11-23T09:38:40.247Z,72.94
2023-11-23T09:41:08.129Z,72.56
2023-11-23T09:43:34.830Z,72.17
2023-11-23T09:46:03.006Z,71.83
2023-11-23T09:49:07.916Z,71.90
2023-11-23T09:51:36.564Z,72.43
2023-11-23T09:54:04.535Z,72.16
2023-11-23T09:56:36.313Z,72.04
2023-11-23T09:59:03.133Z,72.19
2023-11-23T10:01:30.123Z,72.71
2023-11-23T10:03:57.233Z,71.59
2023-11-23T10:06:24.475Z,71.17
2023-11-23T10:08:51.245Z,71.14
2023-11-23T10:11:21.134Z,71.66
2023-11-23T10:13:51.356Z,70.54
2023-11-23T10:16:36.121Z,70.53
2023-11-23T10:19:08.186Z,70.71
2023-11-23T10:21:35.663Z,70.14
2023-11-23T10:24:09.281Z,70.06
2023-11-23T10:26:36.377Z,69.89
2023-11-23T10:29:03.432Z,70.35
2023-11-23T10:31:31.966Z,70.40
2023-11-23T10:33:59.617Z,70.96
2023-11-23T10:36:26.382Z,70.28
2023-11-23T10:38:53.105Z,70.48
2023-11-23T10:41:19.773Z,70.10
2023-11-23T10:43:49.840Z,70.67
2023-11-23T10:46:18.058Z,70.22
2023-11-23T10:48:45.783Z,70.36
2023-11-23T10:51:12.539Z,69.63
2023-11-23T10:53:41.160Z,70.16
2023-11-23T10:56:17.725Z,68.78
2023-11-23T10:58:44.411Z,69.90
2023-11-23T11:01:11.770Z,70.41
2023-11-23T11:03:39.622Z,69.76
2023-11-23T11:06:11.542Z,69.96
2023-11-23T11:08:39.441Z,69.38
2023-11-23T11:11:11.688Z,69.79
2023-11-23T11:13:45.743Z,69.47
2023-11-23T11:16:16.889Z,69.40
2023-11-23T11:18:53.731Z,69.69
2023-11-23T11:21:22.047Z,70.00
2023-11-23T11:23:53.059Z,69.66
2023-11-23T11:26:29.284Z,68.98
2023-11-23T11:28:59.169Z,70.05
2023-11-23T11:31:33.214Z,69.38
2023-11-23T11:34:01.565Z,69.76
2023-11-23T11:36:32.278Z,70.08
2023-11-23T11:39:00.851Z,69.46
2023-11-23T11:41:31.057Z,69.39
2023-11-23T11:43:58.394Z,69.70
2023-11-23T11:46:28.439Z,69.11
2023-11-23T11:49:02.438Z,69.70
2023-11-23T11:51:31.137Z,68.94
2023-11-23T11:54:01.346Z,69.53
2023-11-23T11:56:29.419Z,70.08
2023-11-23T11:58:58.211Z,69.88
2023-11-23T12:01:26.445Z,70.31
2023-11-23T12:03:54.894Z,70.98
2023-11-23T12:06:21.742Z,70.75
2023-11-23T12:08:48.447Z,71.14
2023-11-23T12:11:28.078Z,71.51
2023-11-23T12:13:57.074Z,71.47
2023-11-23T12:16:33.087Z,71.00
2023-11-23T12:19:00.187Z,70.28
2023-11-23T12:21:26.989Z,70.52
2023-11-23T12:23:54.244Z,71.02
2023-11-23T12:26:20.888Z,71.37
2023-11-23T12:28:50.931Z,71.38
2023-11-23T12:31:18.943Z,71.25
2023-11-23T12:33:45.815Z,71.21
2023-11-23T12:36:13.692Z,72.09
2023-11-23T12:38:40.540Z,71.69
2023-11-23T12:41:08.591Z,71.93
2023-11-23T12:43:36.292Z,72.34
2023-11-23T12:46:03.347Z,72.86
2023-11-23T12:48:30.222Z,73.39
2023-11-23T12:50:57.757Z,73.14
2023-11-23T12:55:51.207Z,74.21
2023-11-23T12:58:20.221Z,74.27
2023-11-23T13:00:48.362Z,74.42
2023-11-23T13:03:15.446Z,74.83
2023-11-23T13:05:42.544Z,74.92
2023-11-23T13:08:09.654Z,74.63
2023-11-23T13:10:37.252Z,74.76
2023-11-23T13:13:06.239Z,75.05
2023-11-23T13:15:34.469Z,75.21
2023-11-23T13:18:01.374Z,75.08
2023-11-23T13:20:28.391Z,74.80
2023-11-23T13:22:55.697Z,74.51
2023-11-23T13:25:22.605Z,74.69
2023-11-23T13:27:52.697Z,74.62
2023-11-23T13:30:19.440Z,74.77
2023-11-23T13:32:47.520Z,74.93
2023-11-23T13:35:14.392Z,75.01
2023-11-23T13:37:41.043Z,75.24
2023-11-23T13:40:08.576Z,75.46
2023-11-23T13:42:35.492Z,75.47
2023-11-23T13:45:03.588Z,75.20
2023-11-23T13:47:30.369Z,75.58
2023-11-23T13:49:57.056Z,75.07
2023-11-23T13:52:23.744Z,74.80
2023-11-23T13:54:50.480Z,75.29
2023-11-23T13:57:17.393Z,74.86
2023-11-23T13:59:45.162Z,74.20
2023-11-23T14:02:14.117Z,74.17
2023-11-23T14:04:41.582Z,73.63
2023-11-23T14:07:08.683Z,74.10
2023-11-23T14:09:35.462Z,73.76
2023-11-23T14:12:04.859Z,73.67
2023-11-23T14:14:31.830Z,73.14
2023-11-23T14:16:58.793Z,72.70
2023-11-23T14:19:26.247Z,73.02
2023-11-23T14:21:53.042Z,72.87
2023-11-23T14:24:21.374Z,72.56
2023-11-23T14:26:50.864Z,72.69
2023-11-23T14:29:17.950Z,72.46
2023-11-23T14:31:45.747Z,72.56
2023-11-23T14:34:12.478Z,72.51
2023-11-23T14:36:39.248Z,71.90
2023-11-23T14:39:06.990Z,72.17
2023-11-23T14:41:33.721Z,72.23
2023-11-23T14:44:00.346Z,72.67
2023-11-23T14:46:26.951Z,72.51
2023-11-23T14:48:53.706Z,72.21
2023-11-23T14:51:21.368Z,72.53
2023-11-23T14:53:51.747Z,72.23
2023-11-23T14:56:19.755Z,71.85
2023-11-23T14:58:46.773Z,72.78
2023-11-23T15:01:13.576Z,72.99
2023-11-23T15:03:40.316Z,72.89
2023-11-23T15:06:07.315Z,71.61
2023-11-23T15:08:33.964Z,71.69
2023-11-23T15:11:00.719Z,71.34
2023-11-23T15:13:35.987Z,71.01
2023-11-23T15:16:05.915Z,70.77
2023-11-23T15:18:32.750Z,70.46
2023-11-23T15:21:00.588Z,70.27
2023-11-23T15:23:27.337Z,70.21
2023-11-23T15:25:55.427Z,70.33
2023-11-23T15:28:22.856Z,70.83
2023-11-23T15:30:49.873Z,69.95
2023-11-23T15:33:17.806Z,69.98
2023-11-23T15:35:45.206Z,69.84
2023-11-23T15:38:11.874Z,69.70
2023-11-23T15:40:38.526Z,69.12
2023-11-23T15:43:05.372Z,69.57
2023-11-23T15:45:32.168Z,70.14
2023-11-23T15:47:58.850Z,69.64
2023-11-23T15:50:29.357Z,68.72
2023-11-23T15:52:57.906Z,68.23
2023-11-23T15:55:25.441Z,68.68
2023-11-23T15:57:52.242Z,69.12
2023-11-23T16:00:24.872Z,68.66
2023-11-23T16:02:51.715Z,68.96
2023-11-23T16:05:25.851Z,68.52
2023-11-23T16:07:53.521Z,68.76
2023-11-23T16:10:20.659Z,68.63
2023-11-23T16:12:47.983Z,69.04
2023-11-23T16:15:14.930Z,68.43
2023-11-23T16:17:41.667Z,68.79
2023-11-23T16:20:12.489Z,69.01
2023-11-23T16:22:39.138Z,68.98
2023-11-23T16:25:08.414Z,69.20
2023-11-23T16:27:35.201Z,68.52
2023-11-23T16:30:02.620Z,68.47
2023-11-23T16:32:29.316Z,68.68
2023-11-23T16:34:56.468Z,68.68
2023-11-23T16:37:23.157Z,68.45
2023-11-23T16:39:50.193Z,68.07
2023-11-23T16:42:16.971Z,68.68
2023-11-23T16:44:43.674Z,68.02
2023-11-23T16:47:12.103Z,68.73
2023-11-23T16:49:38.963Z,68.73
2023-11-23T16:52:06.108Z,68.78
2023-11-23T16:54:32.865Z,68.89
2023-11-23T16:56:59.673Z,68.59
2023-11-23T16:59:26.318Z,68.79
2023-11-23T17:01:53.060Z,68.26
2023-11-23T17:04:19.989Z,68.56
2023-11-23T17:06:46.745Z,68.49
2023-11-23T17:09:14.083Z,68.85
2023-11-23T17:11:40.876Z,68.62
2023-11-23T17:14:10.971Z,68.51
2023-11-23T17:16:39.417Z,68.23
2023-11-23T17:19:06.227Z,68.18
2023-11-23T17:21:32.980Z,68.74
2023-11-23T17:24:00.118Z,68.59
2023-11-23T17:26:26.761Z,68.73
2023-11-23T17:28:55.685Z,68.35
2023-11-23T17:31:22.384Z,68.32
2023-11-23T17:33:49.045Z,67.88
2023-11-23T17:36:15.832Z,68.03
2023-11-23T17:38:42.550Z,68.62
2023-11-23T17:41:11.531Z,68.44
2023-11-23T17:43:38.276Z,67.95
2023-11-23T17:46:06.020Z,68.09
2023-11-23T17:48:35.009Z,68.63
2023-11-23T17:51:01.720Z,68.23
2023-11-23T17:53:29.170Z,68.38
2023-11-23T17:55:55.940Z,68.90
2023-11-23T17:58:22.919Z,68.15
2023-11-23T18:00:50.525Z,68.65
2023-11-23T18:03:18.413Z,68.56
2023-11-23T18:05:45.152Z,68.65
2023-11-23T18:08:11.883Z,69.02
2023-11-23T18:10:39.352Z,68.81
2023-11-23T18:13:06.668Z,68.48
2023-11-23T18:15:34.314Z,69.11
2023-11-23T18:18:09.758Z,68.23
2023-11-23T18:20:41.939Z,68.22
2023-11-23T18:23:08.595Z,68.83
2023-11-23T18:25:37.169Z,68.19
2023-11-23T18:28:03.812Z,68.26
2023-11-23T18:30:30.481Z,68.25
2023-11-23T18:32:57.324Z,67.62
2023-11-23T18:35:24.795Z,68.39
2023-11-23T18:37:51.519Z,68.55
2023-11-23T18:40:22.176Z,68.28
2023-11-23T18:42:54.421Z,68.55
2023-11-23T18:45:21.223Z,68.59
2023-11-23T18:47:48.234Z,68.37
2023-11-23T18:50:16.031Z,68.12
2023-11-23T18:52:42.768Z,68.30
2023-11-23T18:55:16.197Z,68.16
2023-11-23T18:57:43.317Z,68.43
2023-11-23T19:00:10.727Z,67.77
2023-11-23T19:02:42.105Z,67.99
2023-11-23T19:05:09.526Z,67.94
2023-11-23T19:07:36.172Z,67.98
2023-11-23T19:10:03.219Z,67.09
2023-11-23T19:12:31.188Z,67.65
2023-11-23T19:15:02.031Z,67.40
2023-11-23T19:17:29.452Z,67.73
2023-11-23T19:19:56.334Z,67.31
2023-11-23T19:22:23.453Z,67.37
2023-11-23T19:24:52.359Z,67.57
2023-11-23T19:27:24.631Z,67.39
2023-11-23T19:29:51.835Z,67.59
2023-11-23T19:32:24.430Z,67.73
2023-11-23T19:34:54.466Z,67.20
2023-11-23T19:37:22.017Z,67.82
2023-11-23T19:39:49.052Z,67.80
2023-11-23T19:42:16.201Z,67.88
2023-11-23T19:44:43.380Z,67.77
2023-11-23T19:47:10.537Z,67.92
2023-11-23T19:49:37.655Z,67.63
2023-11-23T19:52:14.636Z,67.72
2023-11-23T19:54:41.811Z,67.68
2023-11-23T19:57:09.810Z,68.73
2023-11-23T19:59:36.642Z,68.84
2023-11-23T20:02:04.420Z,68.89
2023-11-23T20:04:32.665Z,69.03
2023-11-23T20:06:59.429Z,68.61
2023-11-23T20:09:26.179Z,69.28
2023-11-23T20:11:54.176Z,68.80
2023-11-23T20:14:20.883Z,69.46
2023-11-23T20:16:47.533Z,69.25
2023-11-23T20:19:14.247Z,70.00
2023-11-23T20:21:41.124Z,70.26
2023-11-23T20:24:08.124Z,70.79
2023-11-23T20:26:34.806Z,70.20
2023-11-23T20:29:01.473Z,70.49
2023-11-23T20:31:29.510Z,70.09
2023-11-23T20:33:56.274Z,70.75
2023-11-23T20:36:23.105Z,70.91
2023-11-23T20:38:50.007Z,71.21
2023-11-23T20:41:16.840Z,70.96
2023-11-23T20:43:43.518Z,71.14
2023-11-23T20:46:13.191Z,70.98
2023-11-23T20:48:40.781Z,71.12
2023-11-23T20:51:07.470Z,71.28
2023-11-23T20:53:34.966Z,70.77
2023-11-23T20:56:02.192Z,71.35
2023-11-23T20:58:29.108Z,70.99
2023-11-23T21:00:58.170Z,70.67
2023-11-23T21:03:26.662Z,70.79
2023-11-23T21:05:53.721Z,70.72
2023-11-23T21:08:20.645Z,70.97
2023-11-23T21:10:49.187Z,70.01
2023-11-23T21:13:16.791Z,70.45
2023-11-23T21:15:44.052Z,70.14
2023-11-23T21:18:11.559Z,69.78
2023-11-23T21:20:40.941Z,69.79
2023-11-23T21:23:07.630Z,70.13
2023-11-23T21:25:36.067Z,69.94
2023-11-23T21:28:03.785Z,70.48
2023-11-23T21:30:30.497Z,70.30
2023-11-23T21:32:57.900Z,70.34
2023-11-23T21:35:27.552Z,70.06
2023-11-23T21:37:54.694Z,71.02
2023-11-23T21:40:23.635Z,70.84
2023-11-23T21:42:51.845Z,70.88
2023-11-23T21:45:22.787Z,71.17
2023-11-23T21:47:50.731Z,70.92
2023-11-23T21:50:18.953Z,70.45
2023-11-23T21:52:47.756Z,70.03
2023-11-23T21:55:15.500Z,70.68
2023-11-23T21:57:43.789Z,70.27
2023-11-23T22:00:13.282Z,70.12
2023-11-23T22:02:43.029Z,70.31
2023-11-23T22:05:10.213Z,70.28
2023-11-23T22:07:37.067Z,70.09
2023-11-23T22:10:04.111Z,70.52
2023-11-23T22:12:30.788Z,70.48
2023-11-23T22:14:57.430Z,70.03
2023-11-23T22:17:24.813Z,69.74
2023-11-23T22:19:51.878Z,70.40
2023-11-23T22:22:21.553Z,70.88
2023-11-23T22:24:48.605Z,71.19
2023-11-23T22:27:15.684Z,70.78
2023-11-23T22:29:42.579Z,70.67
2023-11-23T22:32:09.431Z,70.82
2023-11-23T22:34:36.790Z,71.11
2023-11-23T22:37:05.270Z,70.65
2023-11-23T22:39:37.197Z,71.77
2023-11-23T22:42:04.496Z,71.94
2023-11-23T22:44:31.457Z,72.47
2023-11-23T22:46:58.613Z,73.14
2023-11-23T22:49:32.822Z,73.69
2023-11-23T22:52:05.974Z,73.90
2023-11-23T22:54:35.599Z,74.00
2023-11-23T22:57:04.365Z,74.52
2023-11-23T22:59:32.635Z,74.08
2023-11-23T23:02:00.992Z,74.33
2023-11-23T23:04:29.077Z,74.62
2023-11-23T23:07:00.103Z,74.26
2023-11-23T23:09:30.742Z,74.23
2023-11-23T23:11:58.563Z,74.10
2023-11-23T23:14:36.798Z,73.80
2023-11-23T23:17:03.465Z,74.84
2023-11-23T23:19:30.146Z,75.17
2023-11-23T23:21:57.018Z,75.73
2023-11-23T23:24:23.795Z,76.13
2023-11-23T23:26:50.531Z,76.41
2023-11-23T23:29:18.205Z,76.90
2023-11-23T23:32:47.315Z,77.56
2023-11-23T23:35:14.084Z,78.21
2023-11-23T23:37:40.746Z,78.58
2023-11-23T23:40:08.505Z,78.89
2023-11-23T23:42:35.300Z,79.56
2023-11-23T23:45:02.071Z,79.54
2023-11-23T23:47:28.799Z,79.79
2023-11-23T23:49:55.560Z,80.29
2023-11-23T23:52:22.211Z,81.24
2023-11-23T23:54:50.224Z,81.01
2023-11-23T23:57:17.396Z,81.09
2023-11-23T23:59:44.081Z,81.71
